Wilton Manors, Florida
Current Conditions -  °F | °C
As of 5:53 PM on Saturday 20 Dec 2014 (Local Time) from KFXE Reporting Station
Scattered Clouds Scattered Clouds  
Wind Chill: 73°   Ceiling: Unl
Heat Index: 73°   Visibility: 10mi
Dew Point: 61°   Wind: 3mph
Humidity: 66%   Direction: 140°SE
Pressure: 30.04"   Gusts: NA
Location:  26.1649°N, 80.1136°W
Report Text: KFXE 202253Z 14003KT 10SM SCT075 23/16 A3004 RMK AO2 SLP176 T02280161
Loading
Personal Weather Stations






























Interactive Weather Map New forecast layout! Learn more

10-Day Weather Forecast

Advertisements
Track Severe Weather on mobile